Airfield :
LOGIN :

Register | Disclaimer

   EN    FR    IT 

 










Legend :    VFR   Marginal VFR   IFR   Intensive IFR   Very Intensive IFR
Visi :
Ceiling :
>= 8 km
>= 3000ft
5 to 8 km
1000 to 3000 ft
1500m to 5 km
500 to 1000 ft
800 to 1500m
200 to 500 ft
< 800m
< 200 ft
Symbols :   Thunderstorms  Fog  Heavy snow  Heavy precipitations  Wind > 20 kt
SIGMETs :     Misc.  Thunderstorms  Icing  Turbulence  Mountain Waves  Volcanic Ashes






- Airport Elevation : 32 ft
- IATA code : LKZ


EGUL - RAF Lakenheath

CURRENT METAR :
  • 210955Z AUTO 30008KT 9999 SCT047 SCT190 19/12 A2980 RMK AO2 SLP095 T01920115 FZRANO $

EXPIRED METARs :
  • 210855Z AUTO 30009KT 9999 FEW019 BKN047 19/13 A2979 RMK AO2 SLP091 T01900129 52014 FZRANO $
  • 210845Z AUTO 29009KT 9999 SCT019 SCT046 19/13 A2979 RMK AO2 SLP091 FZRANO $
  • 210755Z AUTO 30008KT 9999 FEW018 SCT044 19/14 A2978 RMK AO2 SLP088 T01920138 FZRANO $
  • 210655Z AUTO 30010KT 9999 BKN037 19/14 A2975 RMK AO2 SLP078 T01850144 FZRANO $
  • 210555Z AUTO 30008KT 9999 SCT039 18/15 A2975 RMK AO2 SLP078 T01820147 10193 20176 52020 FZRANO $

Expired Forecast.



MET'MAP, your aeronautical weather chart ! - Copyright ORBIFLY December 2007 - Disclaimer

ORBIFLY MET'MAP TEAM :

Programming & Development : Alexandra Zaïnal
Original concept : Baudouin d'Aumeries
Technical & hardware support : Manuel Goepfert
Assistance : Marc-Olivier Méhu




SOURCES & CREDITS :

   NOAA